This is the latest recevied weather packets stored in our database for station/object VA3ECP. If no packets are shown the sender has not sent any weather packets the latest 10 day(s).
| Time | Temp. | Humidity | Pressure | Rain* | Wind** | Luminosity | Snow |
|---|---|---|---|---|---|---|---|
| 1777828530 | 13.33° C | 40% | 1009.3 hPa | 0 mm | - | - | - |
| 1777824923 | 12.22° C | 45% | 1010.1 hPa | 0 mm | - | - | - |
| 1777821928 | 12.78° C | 51% | 1010.8 hPa | 0 mm | - | - | - |
| 1777815321 | 10.56° C | 57% | 1011.8 hPa | 0 mm | - | - | - |
| 1777803020 | 3.89° C | 77% | 1011.6 hPa | 0 mm | - | - | - |
| 1777802430 | 3.89° C | 76% | 1011.6 hPa | 0 mm | - | - | - |
| 1777798227 | 3.89° C | 74% | 1011.9 hPa | 0 mm | - | - | - |
| 1777797629 | 3.89° C | 74% | 1011.9 hPa | 0 mm | - | - | - |
| 1777797019 | 3.89° C | 73% | 1012 hPa | 0 mm | - | - | - |
| 1777788037 | 5° C | 72% | 1012.3 hPa | 0 mm | - | - | - |
| 1777785025 | 5° C | 69% | 1012.5 hPa | 0 mm | - | - | - |
| 1777774825 | 6.11° C | 67% | 1013.3 hPa | 0 mm | - | - | - |
| 1777774220 | 6.11° C | 66% | 1013.3 hPa | 0 mm | - | - | - |
| 1777773622 | 6.11° C | 66% | 1013.3 hPa | 0 mm | - | - | - |
| 1777770625 | 6.67° C | 62% | 1013 hPa | 0 mm | - | - | - |
| 1777769423 | 6.67° C | 61% | 1012.9 hPa | 0 mm | - | - | - |
| 1777768220 | 7.22° C | 60% | 1012.7 hPa | 0 mm | - | - | - |
| 1777767038 | 7.78° C | 58% | 1012.6 hPa | 0 mm | - | - | - |
| 1777766425 | 7.78° C | 57% | 1012.5 hPa | 0 mm | - | - | - |
| 1777762226 | 9.44° C | 53% | 1012.2 hPa | 0 mm | - | - | - |
| 1777761620 | 9.44° C | 52% | 1012.1 hPa | 0 mm | - | - | - |
| 1777760422 | 9.44° C | 52% | 1012.2 hPa | 0 mm | - | - | - |
| 1777757429 | 9.44° C | 54% | 1012.1 hPa | 0 mm | - | - | - |
| 1777755032 | 10° C | 57% | 1012 hPa | 0 mm | - | - | - |
| 1777749627 | 8.89° C | 61% | 1012.2 hPa | 0 mm | - | - | - |
* Rain latest hour (hover to see other rain measurements)
** Current wind speed in m/s (hover to see current wind gust speed)